Time;durP1;ratioP1;P1;durP2;ratioP2;P2;SDS_P1;SDS_P2;PMS_P1;PMS_P2;Temp;Humidity;BMP_temperature;BMP_pressure;BME280_temperature;BME280_humidity;BME280_pressure;Samples;Min_cycle;Max_cycle;Signal;HPM_P1;HPM_P2
2021/11/07 00:06:35;;;;;;;15.17;12.13;;;;;;;4.69;100.00;99406.28;4999791;28;20468;-57
2021/11/07 00:09:13;;;;;;;18.97;11.37;;;;;;;4.56;100.00;99392.53;5000370;28;20032;-57
2021/11/07 00:11:40;;;;;;;18.57;11.80;;;;;;;4.60;100.00;99394.28;4996748;28;20463;-58
2021/11/07 00:14:08;;;;;;;15.50;11.20;;;;;;;4.59;100.00;99403.59;4997654;28;20088;-57
2021/11/07 00:16:36;;;;;;;17.40;11.43;;;;;;;4.51;100.00;99394.97;5000046;28;20076;-59
2021/11/07 00:19:08;;;;;;;17.93;11.17;;;;;;;4.40;100.00;99399.03;5000757;28;20030;-58
2021/11/07 00:24:49;;;;;;;18.27;12.00;;;;;;;4.22;100.00;99387.69;4933777;29;20036;-59
2021/11/07 00:30:05;;;;;;;16.42;11.20;;;;;;;4.06;100.00;99378.94;4939832;29;20040;-58
2021/11/07 00:37:45;;;;;;;17.60;11.35;;;;;;;3.88;100.00;99363.34;4920143;28;20058;-58
2021/11/07 00:42:46;;;;;;;18.17;11.40;;;;;;;3.86;100.00;99354.88;4939805;29;20098;-60
2021/11/07 00:47:50;;;;;;;17.60;11.60;;;;;;;3.92;100.00;99360.91;4943242;29;20081;-58
2021/11/07 00:50:18;;;;;;;17.65;12.35;;;;;;;3.73;100.00;99365.59;4940953;28;20094;-59
2021/11/07 00:52:54;;;;;;;16.70;11.97;;;;;;;3.69;100.00;99368.06;4939910;28;20063;-59
2021/11/07 00:55:31;;;;;;;18.33;11.73;;;;;;;3.59;100.00;99356.03;4942485;29;20461;-59
2021/11/07 00:58:02;;;;;;;17.70;10.97;;;;;;;3.53;100.00;99355.03;4941198;28;20039;-59
2021/11/07 01:00:45;;;;;;;14.50;11.00;;;;;;;3.48;100.00;99361.72;4944574;28;20046;-58
2021/11/07 01:03:13;;;;;;;16.13;11.23;;;;;;;3.44;100.00;99372.59;5001184;28;20113;-59
2021/11/07 01:05:39;;;;;;;15.10;11.53;;;;;;;3.45;100.00;99376.84;5004145;28;20041;-59
2021/11/07 01:08:04;;;;;;;14.67;10.53;;;;;;;3.46;100.00;99368.44;5001829;28;20748;-59
2021/11/07 01:10:30;;;;;;;17.57;10.63;;;;;;;3.55;100.00;99355.94;5000271;28;20539;-59
2021/11/07 01:12:57;;;;;;;17.57;10.87;;;;;;;3.51;100.00;99357.56;5002058;28;20113;-59
2021/11/07 01:15:25;;;;;;;15.20;10.00;;;;;;;3.53;100.00;99352.50;5004214;28;20033;-58
2021/11/07 01:17:51;;;;;;;14.90;9.97;;;;;;;3.44;100.00;99348.09;5000887;28;20112;-58
2021/11/07 01:20:20;;;;;;;15.07;10.23;;;;;;;3.43;100.00;99337.97;5000926;28;20113;-59
2021/11/07 01:23:00;;;;;;;14.37;9.30;;;;;;;3.41;100.00;99329.44;5002971;28;20028;-58
2021/11/07 01:25:29;;;;;;;13.50;9.83;;;;;;;3.41;100.00;99330.31;5002778;28;20026;-60
2021/11/07 01:27:57;;;;;;;15.37;9.93;;;;;;;3.37;100.00;99332.75;5000506;28;20122;-57
2021/11/07 01:30:25;;;;;;;14.53;10.07;;;;;;;3.51;100.00;99327.16;4999970;28;20034;-58
2021/11/07 01:32:59;;;;;;;14.37;10.17;;;;;;;3.67;100.00;99313.94;5002940;28;20391;-58
2021/11/07 01:35:32;;;;;;;15.47;9.87;;;;;;;3.66;100.00;99307.16;5002977;28;20101;-58
2021/11/07 01:40:33;;;;;;;13.13;10.23;;;;;;;3.54;100.00;99296.78;4999410;28;20044;-58
2021/11/07 01:42:59;;;;;;;15.30;9.70;;;;;;;3.46;100.00;99303.38;5001856;28;20054;-55
2021/11/07 01:45:36;;;;;;;13.83;9.97;;;;;;;3.44;100.00;99297.41;5000933;28;20379;-58
2021/11/07 01:48:08;;;;;;;15.87;10.50;;;;;;;3.41;100.00;99297.38;4998509;28;20089;-57
2021/11/07 01:50:40;;;;;;;18.03;9.83;;;;;;;3.43;100.00;99298.28;5000512;28;20096;-57
2021/11/07 01:53:15;;;;;;;13.10;8.90;;;;;;;3.52;100.00;99288.28;5001633;28;20029;-57
2021/11/07 01:55:41;;;;;;;13.73;9.80;;;;;;;3.56;100.00;99300.22;5002243;28;20037;-58
2021/11/07 01:58:06;;;;;;;12.60;9.30;;;;;;;3.68;100.00;99303.00;5003553;28;20030;-59
2021/11/07 02:00:32;;;;;;;13.97;9.07;;;;;;;3.62;100.00;99292.72;5006870;28;20453;-59
2021/11/07 02:02:58;;;;;;;14.47;9.20;;;;;;;3.62;100.00;99281.72;5002348;28;20034;-57
2021/11/07 02:05:24;;;;;;;13.97;9.60;;;;;;;3.70;100.00;99285.25;5006034;28;20062;-59
2021/11/07 02:07:50;;;;;;;12.33;8.47;;;;;;;3.68;100.00;99290.31;5000521;28;20545;-58
2021/11/07 02:10:17;;;;;;;11.57;8.53;;;;;;;3.66;100.00;99288.56;5004419;28;20022;-61
2021/11/07 02:12:42;;;;;;;12.30;8.73;;;;;;;3.69;100.00;99289.47;5001669;28;20030;-58
2021/11/07 02:15:11;;;;;;;11.23;8.03;;;;;;;3.66;100.00;99286.00;5000505;28;20029;-60
2021/11/07 02:17:37;;;;;;;14.70;8.27;;;;;;;3.63;100.00;99291.91;4998944;28;20057;-58
2021/11/07 02:20:09;;;;;;;12.50;8.67;;;;;;;3.67;100.00;99288.59;5002808;28;20038;-57
2021/11/07 02:22:36;;;;;;;11.93;7.93;;;;;;;3.70;100.00;99290.31;5006159;28;20125;-58
2021/11/07 02:25:03;;;;;;;11.23;7.40;;;;;;;3.58;100.00;99290.94;5000328;28;20030;-58
2021/11/07 02:27:28;;;;;;;11.47;7.07;;;;;;;3.58;100.00;99287.56;5001518;28;20045;-60
2021/11/07 02:29:54;;;;;;;10.10;7.30;;;;;;;3.52;100.00;99282.38;5005047;28;20072;-56
2021/11/07 02:32:19;;;;;;;11.40;6.73;;;;;;;3.48;100.00;99276.38;5003540;28;20509;-59
2021/11/07 02:34:45;;;;;;;9.50;7.27;;;;;;;3.43;100.00;99272.06;5003241;28;20030;-56
2021/11/07 02:37:11;;;;;;;9.00;6.57;;;;;;;3.38;100.00;99269.44;5001223;28;20113;-57
2021/11/07 02:39:38;;;;;;;7.23;6.10;;;;;;;3.37;100.00;99270.25;5001651;28;20441;-60
2021/11/07 02:42:05;;;;;;;11.63;6.87;;;;;;;3.40;100.00;99262.72;5000765;28;20077;-60
2021/11/07 02:44:34;;;;;;;11.77;7.77;;;;;;;3.49;100.00;99262.88;4997880;28;20038;-59
2021/11/07 02:47:02;;;;;;;9.70;6.10;;;;;;;3.44;100.00;99253.47;5000234;28;20057;-60
2021/11/07 02:49:28;;;;;;;9.27;6.63;;;;;;;3.38;100.00;99266.06;4999033;28;20030;-60
2021/11/07 02:51:57;;;;;;;8.27;6.37;;;;;;;3.29;100.00;99269.25;5001337;28;20645;-59
2021/11/07 02:54:23;;;;;;;8.80;6.07;;;;;;;3.16;100.00;99270.69;5000743;28;20111;-57
2021/11/07 02:56:50;;;;;;;7.80;5.60;;;;;;;3.10;100.00;99272.22;5004752;28;20109;-58
2021/11/07 02:59:22;;;;;;;9.23;6.63;;;;;;;3.06;100.00;99270.44;5002515;28;20038;-56
2021/11/07 03:01:51;;;;;;;8.90;6.00;;;;;;;2.99;100.00;99268.63;5004669;28;20791;-58
2021/11/07 03:04:16;;;;;;;10.37;6.53;;;;;;;2.93;100.00;99269.34;4996121;28;20026;-58
2021/11/07 03:06:43;;;;;;;7.87;6.37;;;;;;;2.87;100.00;99268.34;5002598;28;20026;-58
2021/11/07 03:09:16;;;;;;;11.97;7.17;;;;;;;2.87;100.00;99274.28;5002870;28;20369;-59
2021/11/07 03:11:42;;;;;;;9.57;6.53;;;;;;;2.78;100.00;99270.69;5000495;28;20038;-59
2021/11/07 03:14:20;;;;;;;10.40;6.50;;;;;;;2.74;100.00;99270.63;4996714;28;20029;-57
2021/11/07 03:16:46;;;;;;;10.13;7.23;;;;;;;2.78;100.00;99263.09;5003103;28;20543;-58
2021/11/07 03:19:12;;;;;;;12.17;7.40;;;;;;;2.75;100.00;99267.28;5003283;28;20494;-60
2021/11/07 03:21:38;;;;;;;11.90;7.57;;;;;;;2.78;100.00;99266.47;4998633;28;20048;-59
2021/11/07 03:24:06;;;;;;;9.63;6.90;;;;;;;2.80;100.00;99267.34;4997878;28;20070;-60
2021/11/07 03:26:34;;;;;;;11.07;7.07;;;;;;;2.81;100.00;99261.47;5005070;28;20392;-59
2021/11/07 03:29:02;;;;;;;10.50;7.00;;;;;;;2.78;100.00;99258.88;5003677;28;20133;-60
2021/11/07 03:34:29;;;;;;;9.77;6.70;;;;;;;2.66;100.00;99253.56;4997998;28;20559;-56
2021/11/07 03:36:57;;;;;;;11.87;7.77;;;;;;;2.70;100.00;99257.88;5003368;28;20117;-59
2021/11/07 03:39:26;;;;;;;11.77;8.17;;;;;;;2.65;100.00;99247.63;4998943;28;20392;-60
2021/11/07 03:41:53;;;;;;;14.00;7.80;;;;;;;2.63;100.00;99259.38;4996834;28;20496;-60
2021/11/07 03:44:21;;;;;;;12.80;8.33;;;;;;;2.61;100.00;99258.53;5001697;28;20049;-59
2021/11/07 03:46:49;;;;;;;13.37;9.07;;;;;;;2.81;100.00;99266.53;5003522;28;20080;-59
2021/11/07 03:49:15;;;;;;;18.67;10.73;;;;;;;3.13;100.00;99262.16;4997879;28;20022;-58
2021/11/07 03:51:41;;;;;;;20.13;12.43;;;;;;;3.24;100.00;99263.22;4998868;28;20033;-59
2021/11/07 03:54:08;;;;;;;16.70;10.20;;;;;;;3.22;100.00;99273.31;5000758;28;20408;-59
2021/11/07 03:56:34;;;;;;;24.07;11.60;;;;;;;3.11;100.00;99279.84;5007815;28;20033;-60
2021/11/07 03:59:00;;;;;;;19.20;11.63;;;;;;;3.16;100.00;99282.50;5001051;28;20598;-58
2021/11/07 04:01:26;;;;;;;18.30;11.33;;;;;;;3.14;100.00;99279.91;4998311;28;20034;-60
2021/11/07 04:03:52;;;;;;;22.97;12.47;;;;;;;3.23;100.00;99289.38;5000320;28;20448;-58
2021/11/07 04:06:17;;;;;;;22.77;12.10;;;;;;;3.20;100.00;99280.06;4999736;28;20121;-57
2021/11/07 04:08:44;;;;;;;25.37;14.23;;;;;;;3.19;100.00;99273.28;4996861;28;20049;-60
2021/11/07 04:11:10;;;;;;;21.40;11.87;;;;;;;3.14;100.00;99274.84;4998420;28;20636;-58
2021/11/07 04:13:39;;;;;;;27.33;14.83;;;;;;;3.33;100.00;99286.22;5002946;28;20046;-56
2021/11/07 04:16:07;;;;;;;29.00;15.57;;;;;;;3.47;100.00;99276.38;5005775;28;20022;-58
2021/11/07 04:18:35;;;;;;;31.43;17.63;;;;;;;3.42;100.00;99267.81;5002666;28;20040;-59
2021/11/07 04:21:00;;;;;;;31.07;16.60;;;;;;;3.78;100.00;99265.97;5002757;28;20022;-59
2021/11/07 04:23:26;;;;;;;32.17;15.80;;;;;;;3.76;100.00;99261.69;5004050;28;20520;-59
2021/11/07 04:25:52;;;;;;;26.20;14.20;;;;;;;3.82;100.00;99262.66;5006758;28;20035;-58
2021/11/07 04:28:17;;;;;;;23.83;13.77;;;;;;;3.87;100.00;99267.81;5003417;28;20025;-58
2021/11/07 04:30:43;;;;;;;23.90;14.10;;;;;;;3.82;100.00;99261.81;5003231;28;20030;-58
2021/11/07 04:33:08;;;;;;;23.03;13.03;;;;;;;3.91;100.00;99264.50;5004104;28;20049;-60
2021/11/07 04:35:34;;;;;;;21.17;13.03;;;;;;;3.74;100.00;99258.25;5005736;28;20083;-59
2021/11/07 04:38:00;;;;;;;21.70;13.80;;;;;;;3.74;100.00;99248.13;5003672;28;20038;-59
2021/11/07 04:40:26;;;;;;;26.27;14.53;;;;;;;3.77;100.00;99246.53;5000705;28;20964;-60
2021/11/07 04:42:53;;;;;;;22.27;13.17;;;;;;;3.63;100.00;99232.72;5003437;28;20054;-59
2021/11/07 04:45:19;;;;;;;20.83;12.17;;;;;;;3.47;100.00;99234.13;5005667;28;20029;-59
2021/11/07 04:47:46;;;;;;;15.93;10.43;;;;;;;3.38;100.00;99233.97;4999987;28;20045;-60
2021/11/07 04:50:15;;;;;;;16.97;9.87;;;;;;;3.24;100.00;99235.38;5001544;28;20089;-59
2021/11/07 04:52:40;;;;;;;16.27;9.97;;;;;;;3.05;100.00;99233.31;5007220;28;20499;-58
2021/11/07 04:55:08;;;;;;;16.57;10.20;;;;;;;3.00;100.00;99230.66;5009426;28;20061;-60
2021/11/07 04:57:33;;;;;;;17.53;10.50;;;;;;;2.85;100.00;99237.06;5001694;28;20134;-59
2021/11/07 04:59:59;;;;;;;17.33;11.27;;;;;;;2.85;100.00;99226.94;5010269;28;20442;-60
2021/11/07 05:02:25;;;;;;;20.30;10.50;;;;;;;2.89;100.00;99213.53;5003626;28;20039;-59
2021/11/07 05:04:55;;;;;;;22.50;12.73;;;;;;;3.02;100.00;99212.97;5002059;28;20030;-60
2021/11/07 05:07:21;;;;;;;19.50;11.37;;;;;;;3.03;100.00;99219.75;5003580;28;20034;-56
2021/11/07 05:09:47;;;;;;;19.63;11.20;;;;;;;3.08;100.00;99224.09;5003265;28;20257;-59
2021/11/07 05:12:12;;;;;;;21.20;11.17;;;;;;;3.19;100.00;99220.06;5003759;28;20033;-59
2021/11/07 05:14:38;;;;;;;18.83;10.70;;;;;;;3.24;100.00;99207.50;5000964;28;20757;-57
2021/11/07 05:17:04;;;;;;;22.20;10.90;;;;;;;3.15;100.00;99215.78;5001984;28;20040;-59
2021/11/07 05:19:29;;;;;;;17.43;10.47;;;;;;;3.09;100.00;99224.94;5007228;28;20030;-60
2021/11/07 05:21:55;;;;;;;16.73;11.93;;;;;;;3.02;100.00;99203.69;5005125;28;20026;-60
2021/11/07 05:24:21;;;;;;;18.70;10.60;;;;;;;3.13;100.00;99191.25;5000163;28;20069;-59
2021/11/07 05:26:47;;;;;;;17.30;10.60;;;;;;;3.03;100.00;99192.75;4999821;28;20065;-58
2021/11/07 05:29:12;;;;;;;16.63;11.43;;;;;;;2.96;100.00;99192.59;5009201;28;20026;-58
2021/11/07 05:31:38;;;;;;;18.87;10.80;;;;;;;2.89;100.00;99185.66;5005331;28;20026;-59
2021/11/07 05:34:04;;;;;;;16.33;10.13;;;;;;;2.80;100.00;99186.34;5001686;28;20033;-60
2021/11/07 05:36:31;;;;;;;18.17;10.90;;;;;;;2.70;100.00;99170.13;5001349;28;20128;-58
2021/11/07 05:38:57;;;;;;;22.10;11.67;;;;;;;2.61;100.00;99158.94;5003458;28;20040;-60
2021/11/07 05:41:22;;;;;;;18.03;10.93;;;;;;;2.56;100.00;99166.44;5004519;28;20038;-59
2021/11/07 05:43:47;;;;;;;17.47;9.63;;;;;;;2.60;100.00;99180.00;5000122;28;20046;-59
2021/11/07 05:46:13;;;;;;;16.20;10.17;;;;;;;2.51;100.00;99183.19;5005039;28;20033;-56
2021/11/07 05:48:39;;;;;;;15.27;9.30;;;;;;;2.47;100.00;99183.97;5006519;28;20041;-55
2021/11/07 05:51:06;;;;;;;15.77;9.27;;;;;;;2.40;100.00;99186.31;5008049;28;20034;-56
2021/11/07 05:53:32;;;;;;;14.60;8.53;;;;;;;2.39;100.00;99188.00;5002448;28;20034;-56
2021/11/07 05:55:58;;;;;;;13.90;7.83;;;;;;;2.36;100.00;99182.88;5003855;28;20041;-56
2021/11/07 05:58:23;;;;;;;12.10;6.83;;;;;;;2.43;100.00;99169.53;5005194;28;20022;-57
2021/11/07 06:00:49;;;;;;;10.40;7.23;;;;;;;2.40;100.00;99164.41;5003802;28;20104;-54
2021/11/07 06:03:15;;;;;;;10.10;6.57;;;;;;;2.41;100.00;99161.06;5000174;28;20030;-58
2021/11/07 06:05:41;;;;;;;14.03;8.07;;;;;;;2.41;100.00;99173.72;5003036;28;20030;-57
2021/11/07 06:08:06;;;;;;;9.67;7.47;;;;;;;2.42;100.00;99174.59;5007194;28;20050;-59
2021/11/07 06:10:32;;;;;;;13.33;8.03;;;;;;;2.41;100.00;99171.19;5003642;28;20042;-58
2021/11/07 06:12:57;;;;;;;10.13;7.03;;;;;;;2.41;100.00;99168.66;5004823;28;20380;-58
2021/11/07 06:15:22;;;;;;;12.87;8.23;;;;;;;2.39;100.00;99165.22;5004044;28;20058;-59
2021/11/07 06:17:48;;;;;;;13.33;8.50;;;;;;;2.38;100.00;99175.34;5007267;28;20029;-58
2021/11/07 06:20:14;;;;;;;14.83;9.70;;;;;;;2.33;100.00;99185.34;5006308;28;20038;-58
2021/11/07 06:22:40;;;;;;;17.67;9.70;;;;;;;2.29;100.00;99189.47;5001971;28;20034;-58
2021/11/07 06:25:06;;;;;;;13.73;9.40;;;;;;;2.40;100.00;99179.59;5001737;28;20138;-59
2021/11/07 06:27:32;;;;;;;8.80;6.57;;;;;;;2.39;100.00;99156.78;5004542;28;20090;-59
2021/11/07 06:29:59;;;;;;;13.30;7.20;;;;;;;2.38;100.00;99163.50;5003448;28;20031;-57
2021/11/07 06:32:24;;;;;;;9.83;7.40;;;;;;;2.34;100.00;99166.78;5001738;28;20498;-59
2021/11/07 06:34:50;;;;;;;11.93;6.90;;;;;;;2.38;100.00;99193.03;5007093;28;20031;-59
2021/11/07 06:37:16;;;;;;;11.13;7.00;;;;;;;2.40;100.00;99189.72;5004339;28;20028;-60
2021/11/07 06:39:42;;;;;;;7.70;6.40;;;;;;;2.45;100.00;99189.81;5000699;28;20056;-58
2021/11/07 06:42:09;;;;;;;10.80;6.73;;;;;;;2.59;100.00;99185.91;5001038;28;20045;-58
2021/11/07 06:44:34;;;;;;;12.30;6.70;;;;;;;2.66;100.00;99180.16;5005188;28;20034;-60
2021/11/07 06:47:02;;;;;;;11.83;7.17;;;;;;;2.70;100.00;99181.94;5006689;28;20423;-59
2021/11/07 06:49:27;;;;;;;13.27;7.30;;;;;;;2.83;100.00;99176.28;5002640;28;20030;-57
2021/11/07 06:51:53;;;;;;;19.53;9.33;;;;;;;2.87;100.00;99188.19;5000505;28;20018;-56
2021/11/07 06:54:21;;;;;;;12.03;8.20;;;;;;;2.98;100.00;99196.00;5002803;28;20040;-62
2021/11/07 06:56:47;;;;;;;18.17;10.07;;;;;;;3.04;100.00;99188.53;5003191;28;20033;-59
2021/11/07 06:59:12;;;;;;;12.53;8.00;;;;;;;3.15;100.00;99190.44;4998065;28;20462;-58
2021/11/07 07:01:38;;;;;;;12.97;6.97;;;;;;;3.30;100.00;99194.09;4998935;28;20547;-60
2021/11/07 07:04:04;;;;;;;10.10;6.97;;;;;;;3.49;100.00;99189.38;5001445;28;20025;-58
2021/11/07 07:06:30;;;;;;;9.47;6.13;;;;;;;3.62;100.00;99183.72;4998866;28;20030;-62
2021/11/07 07:09:04;;;;;;;8.20;5.93;;;;;;;3.66;100.00;99182.94;4999525;28;20380;-60
2021/11/07 07:11:43;;;;;;;9.17;6.80;;;;;;;3.84;100.00;99177.31;4999544;28;20388;-56
2021/11/07 07:14:13;;;;;;;9.73;6.77;;;;;;;4.05;100.00;99179.34;5001865;28;20026;-59
2021/11/07 07:25:20;;;;;;;8.63;5.53;;;;;;;4.59;100.00;99175.06;5001013;28;20074;-60
2021/11/07 07:35:10;;;;;;;9.73;6.17;;;;;;;5.32;100.00;99144.59;4999465;28;20036;-61
2021/11/07 07:37:36;;;;;;;11.63;7.13;;;;;;;5.60;100.00;99145.72;4997487;28;20059;-56
2021/11/07 07:40:03;;;;;;;9.27;7.17;;;;;;;5.81;100.00;99136.53;4997943;28;20478;-59
2021/11/07 07:42:30;;;;;;;9.37;6.07;;;;;;;6.00;100.00;99132.50;4998138;28;20069;-57
2021/11/07 07:44:56;;;;;;;15.00;8.47;;;;;;;5.96;100.00;99126.53;4998567;28;20071;-58
2021/11/07 07:47:21;;;;;;;13.83;8.23;;;;;;;6.06;100.00;99124.06;4997582;28;20460;-57
2021/11/07 07:49:49;;;;;;;17.03;9.53;;;;;;;6.19;100.00;99131.78;5002837;28;20033;-57
2021/11/07 07:52:20;;;;;;;19.63;12.53;;;;;;;6.04;100.00;99128.28;5002794;28;20030;-58
2021/11/07 07:54:45;;;;;;;13.23;8.40;;;;;;;6.21;100.00;99117.38;5002037;28;20038;-55
2021/11/07 07:57:11;;;;;;;12.30;8.00;;;;;;;6.39;100.00;99116.63;5001976;28;20034;-58
2021/11/07 07:59:36;;;;;;;11.00;8.13;;;;;;;6.47;100.00;99121.75;5000231;28;20037;-60
2021/11/07 08:02:02;;;;;;;11.93;8.07;;;;;;;6.58;100.00;99110.75;5001403;28;20034;-61
2021/11/07 08:04:27;;;;;;;12.40;8.17;;;;;;;6.86;100.00;99115.16;5001735;28;20030;-59
2021/11/07 08:06:52;;;;;;;15.37;7.90;;;;;;;7.05;100.00;99107.53;4999951;28;20022;-60
2021/11/07 08:09:18;;;;;;;10.47;7.20;;;;;;;7.08;100.00;99108.41;5004038;28;20080;-61
2021/11/07 08:11:43;;;;;;;8.27;6.40;;;;;;;7.34;100.00;99116.13;5004271;28;20022;-61
2021/11/07 08:14:09;;;;;;;9.60;6.40;;;;;;;7.38;100.00;99105.06;5002527;28;20030;-61
2021/11/07 08:16:35;;;;;;;6.93;5.53;;;;;;;7.34;100.00;99095.72;5000960;28;20033;-59
2021/11/07 08:19:01;;;;;;;7.63;5.57;;;;;;;7.47;100.00;99088.94;5004344;28;20480;-59
2021/11/07 08:21:30;;;;;;;6.97;5.37;;;;;;;7.62;100.00;99083.81;5003922;28;20040;-61
2021/11/07 08:23:56;;;;;;;6.17;4.40;;;;;;;7.77;100.00;99084.66;5002802;28;20101;-59
2021/11/07 08:26:22;;;;;;;5.37;4.23;;;;;;;7.97;100.00;99083.81;5001414;28;20029;-59
2021/11/07 08:28:48;;;;;;;7.50;5.57;;;;;;;8.12;100.00;99071.84;4999501;28;20451;-62
2021/11/07 08:31:24;;;;;;;6.20;4.93;;;;;;;8.35;100.00;99058.19;5000351;28;20030;-60
2021/11/07 08:33:50;;;;;;;;;;;;;;;8.56;100.00;99061.53;5003086;28;20708;-60
2021/11/07 08:36:22;;;;;;;10.73;5.80;;;;;;;8.52;100.00;99057.28;5003297;28;19985;-60
2021/11/07 08:38:54;;;;;;;8.13;6.33;;;;;;;8.53;100.00;99055.59;4999152;28;21011;-61
2021/11/07 08:41:21;;;;;;;10.50;5.67;;;;;;;8.68;100.00;99064.03;5001558;28;20029;-55
2021/11/07 09:05:07;;;;;;;12.10;8.60;;;;;;;9.41;100.00;99088.34;4998692;28;20072;-57
2021/11/07 09:10:03;;;;;;;14.25;9.65;;;;;;;9.62;99.21;99080.50;5004019;28;20053;-59
2021/11/07 09:12:29;;;;;;;11.70;9.45;;;;;;;9.72;97.74;99088.97;5001773;28;20052;-58
2021/11/07 09:14:55;;;;;;;11.00;8.30;;;;;;;9.82;97.20;99088.84;4999502;28;20056;-59
2021/11/07 09:17:21;;;;;;;12.40;9.10;;;;;;;9.85;96.17;99083.69;5002680;28;20822;-59
2021/11/07 09:19:50;;;;;;;13.75;9.10;;;;;;;9.73;95.21;99085.50;5001602;28;20030;-57
2021/11/07 09:22:23;;;;;;;16.50;11.00;;;;;;;9.88;95.17;99080.28;4999118;28;20026;-58
2021/11/07 09:24:56;;;;;;;11.93;9.32;;;;;;;9.91;96.59;99081.09;4999361;28;20041;-58
2021/11/07 09:27:29;;;;;;;10.63;8.77;;;;;;;9.95;93.53;99077.63;5002094;28;20023;-59
2021/11/07 09:32:35;;;;;;;13.05;9.57;;;;;;;10.04;91.53;99066.47;4998581;28;20030;-60
2021/11/07 09:35:20;;;;;;;11.45;8.23;;;;;;;9.88;92.13;99055.53;5002538;28;20512;-59
2021/11/07 09:37:56;;;;;;;13.20;8.80;;;;;;;9.92;92.27;99059.75;4999159;28;20037;-58
2021/11/07 09:40:25;;;;;;;14.20;9.68;;;;;;;10.15;92.21;99051.84;4998612;28;20030;-58
2021/11/07 09:45:30;;;;;;;9.93;8.40;;;;;;;10.23;89.71;99044.91;5000142;28;20040;-58
2021/11/07 09:48:05;;;;;;;11.50;8.60;;;;;;;10.14;86.80;99039.91;5001006;28;20030;-59
2021/11/07 09:50:31;;;;;;;;;;;;;;;10.36;86.47;99036.22;5002182;28;20472;-58
2021/11/07 09:52:57;;;;;;;10.75;7.88;;;;;;;10.37;84.59;99032.81;5001402;28;19917;-58
2021/11/07 09:55:26;;;;;;;11.60;8.50;;;;;;;9.87;87.13;99027.34;5001828;28;20460;-59
2021/11/07 09:57:54;;;;;;;13.80;9.35;;;;;;;9.84;88.96;99019.72;4999645;28;20100;-58
2021/11/07 10:00:34;;;;;;;13.50;7.65;;;;;;;10.01;87.36;99018.66;4998553;28;20059;-58
2021/11/07 10:03:00;;;;;;;13.98;8.25;;;;;;;10.25;85.76;99020.16;4997243;28;20533;-58
2021/11/07 10:05:26;;;;;;;11.85;8.40;;;;;;;10.39;83.80;98999.47;5002464;28;20036;-58
2021/11/07 10:08:01;;;;;;;10.07;7.60;;;;;;;10.62;82.85;99004.28;5001416;28;20060;-57
2021/11/07 10:10:32;;;;;;;12.18;8.35;;;;;;;10.57;81.10;99003.50;5003681;28;20044;-58
2021/11/07 10:13:08;;;;;;;9.43;7.70;;;;;;;10.68;80.30;99005.09;5006858;28;20034;-58
2021/11/07 10:18:13;;;;;;;11.80;8.15;;;;;;;10.85;78.55;98998.00;5005922;28;20555;-59
2021/11/07 10:20:46;;;;;;;34.03;23.88;;;;;;;10.61;78.95;98994.94;5008442;28;20693;-61
2021/11/07 10:23:21;;;;;;;17.27;13.88;;;;;;;10.95;78.37;99004.69;5006916;28;20346;-59
2021/11/07 10:25:56;;;;;;;12.65;8.35;;;;;;;11.13;77.75;99008.69;5003177;28;20506;-58
2021/11/07 10:28:33;;;;;;;9.88;7.38;;;;;;;11.13;74.05;99007.84;5008012;28;20034;-61
2021/11/07 10:31:07;;;;;;;8.38;5.93;;;;;;;11.23;73.89;98996.56;5005629;28;20034;-59
2021/11/07 10:39:40;;;;;;;9.18;7.28;;;;;;;11.40;76.87;98989.44;5006641;28;20049;-58
2021/11/07 10:52:46;;;;;;;10.32;6.95;;;;;;;11.45;74.08;98967.97;5012304;28;20158;-58
2021/11/07 10:55:17;;;;;;;8.63;6.88;;;;;;;11.71;73.98;98959.78;5009179;28;20036;-58
2021/11/07 10:57:49;;;;;;;10.85;6.85;;;;;;;11.76;73.70;98959.72;5008620;28;20450;-59
2021/11/07 11:00:20;;;;;;;8.93;6.85;;;;;;;11.73;73.85;98955.50;5008725;28;20034;-58
2021/11/07 11:02:54;;;;;;;10.18;7.15;;;;;;;11.78;72.02;98951.13;5004395;28;20033;-57
2021/11/07 11:05:27;;;;;;;10.23;8.00;;;;;;;11.75;72.13;98942.66;5002953;28;20073;-58
2021/11/07 11:07:59;;;;;;;23.02;13.95;;;;;;;11.73;72.84;98945.25;5009112;28;20045;-57
2021/11/07 11:10:35;;;;;;;11.57;7.70;;;;;;;11.90;72.31;98935.50;5007015;28;20559;-57
2021/11/07 11:13:12;;;;;;;8.30;7.00;;;;;;;11.98;70.21;98937.06;5005459;28;20218;-56
2021/11/07 11:15:43;;;;;;;7.53;6.28;;;;;;;11.80;71.32;98933.13;5012374;28;20563;-59
2021/11/07 11:18:29;;;;;;;6.70;5.90;;;;;;;11.92;70.29;98927.75;5012063;28;20040;-58
2021/11/07 11:31:52;;;;;;;6.70;5.50;;;;;;;12.00;71.55;98907.06;5004833;28;20479;-58
2021/11/07 11:34:22;;;;;;;6.90;5.30;;;;;;;12.14;70.81;98899.88;5009166;28;20496;-58
2021/11/07 11:36:57;;;;;;;7.07;5.82;;;;;;;12.19;69.41;98898.06;5007117;28;20026;-59
2021/11/07 11:39:29;;;;;;;7.38;5.70;;;;;;;12.25;69.91;98887.66;5005118;28;20030;-59
2021/11/07 11:42:59;;;;;;;7.85;6.07;;;;;;;11.99;69.86;98903.63;5001946;28;20550;-58
2021/11/07 11:44:54;;;;;;;8.90;6.10;;;;;;;12.03;70.49;98896.69;5001439;28;20111;-58
2021/11/07 11:47:44;;;;;;;8.85;6.32;;;;;;;12.10;71.18;98888.81;5007699;28;20471;-55
2021/11/07 11:52:49;;;;;;;8.35;6.13;;;;;;;12.18;71.29;98884.38;5006290;28;20029;-57
2021/11/07 12:05:41;;;;;;;9.52;6.25;;;;;;;12.23;69.14;98864.56;5010083;28;20372;-54
2021/11/07 12:08:08;;;;;;;8.77;6.00;;;;;;;12.12;68.58;98855.38;5006321;28;20493;-56
2021/11/07 12:10:41;;;;;;;6.72;5.70;;;;;;;12.14;67.65;98856.19;5007481;28;20091;-59
2021/11/07 12:13:31;;;;;;;9.20;5.85;;;;;;;12.22;68.12;98850.00;5011940;28;20030;-57
2021/11/07 12:16:01;;;;;;;7.47;6.05;;;;;;;12.20;69.70;98846.63;5004694;28;20087;-57
2021/11/07 12:18:29;;;;;;;8.85;5.68;;;;;;;12.09;69.70;98840.03;5014067;28;20037;-56
2021/11/07 12:21:01;;;;;;;9.43;5.60;;;;;;;12.20;68.10;98835.50;5003157;28;20060;-58
2021/11/07 12:23:35;;;;;;;6.95;5.25;;;;;;;12.24;67.84;98824.28;5017477;28;20034;-58
2021/11/07 12:26:27;;;;;;;8.10;5.57;;;;;;;12.22;66.49;98821.72;5001994;28;20386;-58
2021/11/07 12:28:54;;;;;;;7.93;5.28;;;;;;;12.18;66.53;98821.81;5007982;28;20510;-56
2021/11/07 12:31:20;;;;;;;6.30;5.60;;;;;;;12.14;66.50;98813.34;5013122;28;20034;-56
2021/11/07 12:34:05;;;;;;;6.88;5.95;;;;;;;12.22;66.14;98813.19;5010278;28;20506;-57
2021/11/07 12:36:40;;;;;;;6.80;5.00;;;;;;;12.22;66.91;98801.16;5009829;28;20083;-57
2021/11/07 12:42:17;;;;;;;7.00;5.53;;;;;;;11.90;66.74;98801.91;5015749;28;20502;-53
2021/11/07 12:44:52;;;;;;;9.82;6.28;;;;;;;11.93;67.23;98798.41;5013218;28;20189;-57
2021/11/07 12:47:24;;;;;;;6.32;5.45;;;;;;;11.86;68.33;98792.56;5008462;28;20025;-57
2021/11/07 12:50:05;;;;;;;6.25;5.63;;;;;;;12.00;68.57;98787.13;5012347;28;20048;-54
2021/11/07 12:52:49;;;;;;;7.30;5.53;;;;;;;11.95;67.04;98780.38;5009257;28;20037;-58
2021/11/07 12:55:29;;;;;;;6.95;5.18;;;;;;;12.02;67.37;98787.06;5006084;28;20466;-58
2021/11/07 12:57:54;;;;;;;7.57;5.45;;;;;;;12.02;66.57;98784.50;5001783;28;20130;-56
2021/11/07 13:00:20;;;;;;;6.97;4.90;;;;;;;12.09;66.44;98793.78;5004753;28;20121;-59
2021/11/07 13:02:47;;;;;;;6.90;4.78;;;;;;;12.13;66.62;98796.25;5005250;28;20032;-59
2021/11/07 13:05:21;;;;;;;5.65;4.90;;;;;;;12.22;66.61;98798.59;5004560;28;20037;-58
2021/11/07 13:13:17;;;;;;;5.72;4.35;;;;;;;12.17;65.95;98786.75;5008777;28;20037;-56
2021/11/07 13:26:45;;;;;;;21.40;14.73;;;;;;;12.33;65.96;98758.06;5003952;28;20034;-52
2021/11/07 13:29:32;;;;;;;10.15;6.95;;;;;;;12.35;65.12;98764.00;5007559;28;20058;-52
2021/11/07 13:35:06;;;;;;;12.82;8.30;;;;;;;12.35;67.57;98751.16;5006596;28;20129;-57
2021/11/07 13:38:09;;;;;;;7.40;5.63;;;;;;;12.28;69.64;98766.78;5008429;28;20487;-55
2021/11/07 13:40:40;;;;;;;8.50;6.28;;;;;;;12.23;70.35;98773.72;5009549;28;20243;-55
2021/11/07 13:43:14;;;;;;;6.20;5.55;;;;;;;12.22;70.08;98754.91;5008892;28;20114;-54
2021/11/07 13:45:43;;;;;;;6.03;5.43;;;;;;;12.16;70.87;98751.63;5008773;28;20034;-56
2021/11/07 13:48:19;;;;;;;9.38;5.80;;;;;;;12.04;72.49;98755.34;5014897;28;20034;-54
2021/11/07 13:50:44;;;;;;;5.85;5.18;;;;;;;11.97;73.19;98751.19;5006038;28;20117;-55
2021/11/07 13:53:20;;;;;;;6.93;5.40;;;;;;;11.91;73.07;98743.66;5004773;28;20044;-52